createdAt,value
2022-11-17T00:02:00.176Z,1.69
2022-11-17T00:04:47.863Z,1.69
2022-11-17T00:07:36.990Z,1.75
2022-11-17T00:10:25.163Z,1.81
2022-11-17T00:13:31.787Z,1.88
2022-11-17T00:16:21.897Z,1.94
2022-11-17T00:19:27.794Z,1.81
2022-11-17T00:22:15.948Z,1.69
2022-11-17T00:25:03.940Z,1.75
2022-11-17T00:27:52.060Z,1.69
2022-11-17T00:31:00.426Z,1.81
2022-11-17T00:34:06.244Z,1.88
2022-11-17T00:36:55.504Z,1.88
2022-11-17T00:39:43.470Z,1.88
2022-11-17T00:42:31.164Z,1.81
2022-11-17T00:45:19.304Z,1.94
2022-11-17T00:48:07.374Z,1.94
2022-11-17T00:50:55.087Z,2.00
2022-11-17T00:53:42.877Z,2.06
2022-11-17T00:56:33.947Z,2.06
2022-11-17T00:59:21.792Z,2.00
2022-11-17T01:02:09.735Z,2.06
2022-11-17T01:04:57.781Z,2.06
2022-11-17T01:07:47.061Z,2.13
2022-11-17T01:10:36.280Z,2.13
2022-11-17T01:13:24.342Z,2.06
2022-11-17T01:16:19.177Z,1.94
2022-11-17T01:19:07.649Z,1.94
2022-11-17T01:21:55.624Z,1.94
2022-11-17T01:24:43.295Z,2.00
2022-11-17T01:27:31.610Z,2.06
2022-11-17T01:30:19.985Z,2.00
2022-11-17T01:33:07.887Z,2.13
2022-11-17T01:35:55.482Z,2.00
2022-11-17T01:38:43.842Z,2.00
2022-11-17T01:41:31.500Z,2.13
2022-11-17T01:44:37.813Z,2.06
2022-11-17T01:47:39.766Z,2.06
2022-11-17T01:50:40.910Z,2.00
2022-11-17T01:53:30.783Z,1.94
2022-11-17T01:56:33.422Z,1.88
2022-11-17T01:59:42.922Z,1.88
2022-11-17T02:02:31.110Z,1.94
2022-11-17T02:05:35.446Z,1.88
2022-11-17T02:08:28.138Z,1.75
2022-11-17T02:11:19.652Z,1.75
2022-11-17T02:14:08.796Z,1.81
2022-11-17T02:16:56.530Z,1.94
2022-11-17T02:19:50.658Z,2.06
2022-11-17T02:22:56.239Z,2.00
2022-11-17T02:26:35.638Z,1.94
2022-11-17T02:29:43.783Z,2.06
2022-11-17T02:33:17.359Z,1.94
2022-11-17T02:36:12.926Z,1.88
2022-11-17T02:39:14.010Z,1.88
2022-11-17T02:42:16.793Z,1.88
2022-11-17T02:45:07.126Z,1.81
2022-11-17T02:48:00.026Z,1.81
2022-11-17T02:50:49.916Z,1.69
2022-11-17T02:53:39.748Z,1.69
2022-11-17T02:56:27.880Z,1.81
2022-11-17T02:59:22.205Z,1.88
2022-11-17T03:02:27.912Z,1.88
2022-11-17T03:05:38.400Z,1.81
2022-11-17T03:08:47.487Z,1.81
2022-11-17T03:12:19.012Z,1.94
2022-11-17T03:15:15.640Z,1.94
2022-11-17T03:18:30.499Z,1.94
2022-11-17T03:21:32.392Z,1.94
2022-11-17T03:24:34.531Z,2.06
2022-11-17T03:27:37.742Z,1.94
2022-11-17T03:30:27.344Z,2.00
2022-11-17T03:33:20.324Z,1.94
2022-11-17T03:36:15.010Z,1.94
2022-11-17T03:39:18.961Z,2.00
2022-11-17T03:42:30.779Z,2.06
2022-11-17T03:45:25.085Z,1.94
2022-11-17T03:48:49.458Z,1.94
2022-11-17T03:51:38.472Z,1.94
2022-11-17T03:54:26.423Z,1.88
2022-11-17T03:57:26.784Z,2.00
2022-11-17T04:00:18.232Z,2.00
2022-11-17T04:03:08.281Z,2.00
2022-11-17T04:05:55.961Z,2.06
2022-11-17T04:08:44.077Z,2.00
2022-11-17T04:11:49.954Z,2.00
2022-11-17T04:14:56.180Z,2.00
2022-11-17T04:17:44.111Z,2.00
2022-11-17T04:20:36.120Z,1.94
2022-11-17T04:23:26.912Z,1.88
2022-11-17T04:26:32.993Z,1.88
2022-11-17T04:29:20.802Z,1.94
2022-11-17T04:32:08.795Z,1.94
2022-11-17T04:34:56.703Z,1.94
2022-11-17T04:37:44.550Z,1.81
2022-11-17T04:40:52.342Z,1.94
2022-11-17T04:43:39.959Z,1.88
2022-11-17T04:46:30.448Z,1.75
2022-11-17T04:49:20.495Z,1.69
2022-11-17T04:52:08.533Z,1.75
2022-11-17T04:54:56.628Z,1.69
2022-11-17T04:57:44.659Z,1.81
2022-11-17T05:00:32.630Z,1.69
2022-11-17T05:03:21.188Z,1.69
2022-11-17T05:06:11.796Z,1.63
2022-11-17T05:09:03.081Z,1.63
2022-11-17T05:12:09.139Z,1.63
2022-11-17T05:14:57.133Z,1.63
2022-11-17T05:17:44.758Z,1.63
2022-11-17T05:20:33.236Z,1.63
2022-11-17T05:23:39.805Z,1.69
2022-11-17T05:26:33.874Z,1.69
2022-11-17T05:29:23.496Z,1.63
2022-11-17T05:32:11.466Z,1.69
2022-11-17T05:34:59.571Z,1.69
2022-11-17T05:37:47.058Z,1.69
2022-11-17T05:40:34.958Z,1.63
2022-11-17T05:43:23.577Z,1.63
2022-11-17T05:46:12.352Z,1.56
2022-11-17T05:49:00.302Z,1.50
2022-11-17T05:51:52.507Z,1.44
2022-11-17T05:54:40.664Z,1.38
2022-11-17T05:57:32.186Z,1.25
2022-11-17T06:00:20.459Z,1.19
2022-11-17T06:03:16.458Z,1.13
2022-11-17T06:06:04.346Z,0.94
2022-11-17T06:08:52.005Z,0.94
2022-11-17T06:11:40.099Z,1.00
2022-11-17T06:14:27.791Z,0.88
2022-11-17T06:17:33.368Z,1.00
2022-11-17T06:20:48.593Z,0.88
2022-11-17T06:23:37.656Z,1.06
2022-11-17T06:26:26.077Z,1.06
2022-11-17T06:29:14.644Z,1.06
2022-11-17T06:32:24.182Z,0.94
2022-11-17T06:35:14.514Z,0.81
2022-11-17T06:38:04.107Z,0.94
2022-11-17T06:40:52.530Z,1.00
2022-11-17T06:43:40.768Z,0.88
2022-11-17T06:46:38.123Z,0.81
2022-11-17T06:49:26.238Z,1.06
2022-11-17T06:52:13.878Z,1.31
2022-11-17T06:55:02.137Z,1.25
2022-11-17T06:57:53.454Z,1.19
2022-11-17T07:00:42.014Z,1.19
2022-11-17T07:03:30.060Z,1.25
2022-11-17T07:06:19.120Z,1.25
2022-11-17T07:09:07.008Z,1.38
2022-11-17T07:11:54.823Z,1.13
2022-11-17T07:14:42.945Z,1.06
2022-11-17T07:17:31.996Z,1.13
2022-11-17T07:20:21.161Z,1.00
2022-11-17T07:23:08.933Z,1.19
2022-11-17T07:25:59.757Z,1.13
2022-11-17T07:28:47.821Z,1.19
2022-11-17T07:31:37.086Z,1.13
2022-11-17T07:34:25.363Z,1.06
2022-11-17T07:37:13.639Z,0.94
2022-11-17T07:40:01.950Z,1.00
2022-11-17T07:42:50.140Z,1.13
2022-11-17T07:45:38.215Z,1.38
2022-11-17T07:48:26.064Z,1.50
2022-11-17T07:51:14.278Z,1.44
2022-11-17T07:54:01.936Z,1.44
2022-11-17T07:56:49.728Z,1.50
2022-11-17T07:59:37.891Z,1.31
2022-11-17T08:02:25.592Z,1.13
2022-11-17T08:05:13.369Z,1.06
2022-11-17T08:08:01.703Z,1.50
2022-11-17T08:10:49.815Z,1.69
2022-11-17T08:13:38.489Z,1.44
2022-11-17T08:16:30.635Z,1.44
2022-11-17T08:19:20.970Z,1.56
2022-11-17T08:22:09.292Z,1.75
2022-11-17T08:24:58.120Z,1.69
2022-11-17T08:27:46.590Z,1.88
2022-11-17T08:30:35.992Z,2.25
2022-11-17T08:33:23.636Z,1.94
2022-11-17T08:36:12.020Z,1.94
2022-11-17T08:38:59.725Z,2.00
2022-11-17T08:41:47.899Z,1.81
2022-11-17T08:44:36.010Z,1.88
2022-11-17T08:47:23.881Z,1.56
2022-11-17T08:50:12.048Z,1.88
2022-11-17T08:52:59.919Z,2.25
2022-11-17T08:55:49.405Z,2.31
2022-11-17T08:58:45.462Z,2.19
2022-11-17T09:01:34.180Z,1.75
2022-11-17T09:04:22.213Z,1.63
2022-11-17T09:07:10.483Z,2.06
2022-11-17T09:09:58.672Z,2.56
2022-11-17T09:12:46.949Z,2.50
2022-11-17T09:15:34.852Z,2.75
2022-11-17T09:18:23.126Z,2.88
2022-11-17T09:21:15.678Z,3.56
2022-11-17T09:24:04.097Z,5.00
2022-11-17T09:26:54.799Z,4.44
2022-11-17T09:29:42.784Z,5.00
2022-11-17T09:32:30.622Z,5.19
2022-11-17T09:35:19.480Z,7.25
2022-11-17T09:38:09.515Z,8.19
2022-11-17T09:40:58.561Z,7.50
2022-11-17T09:44:05.157Z,8.25
2022-11-17T09:47:16.350Z,11.25
2022-11-17T09:50:25.258Z,12.56
2022-11-17T09:53:22.273Z,9.94
2022-11-17T09:56:12.439Z,9.88
2022-11-17T09:59:06.233Z,12.38
2022-11-17T10:01:54.065Z,11.69
2022-11-17T10:04:42.327Z,14.19
2022-11-17T10:07:34.456Z,15.44
2022-11-17T10:10:44.423Z,15.63
2022-11-17T10:13:38.089Z,17.00
2022-11-17T10:16:26.058Z,16.38
2022-11-17T10:19:19.009Z,15.13
2022-11-17T10:22:20.837Z,15.13
2022-11-17T10:25:41.130Z,16.00
2022-11-17T10:28:33.203Z,15.75
2022-11-17T10:31:21.281Z,11.13
2022-11-17T10:34:31.892Z,12.44
2022-11-17T10:37:30.350Z,14.06
2022-11-17T10:40:25.610Z,14.81
2022-11-17T10:43:14.463Z,14.88
2022-11-17T10:46:17.171Z,14.63
2022-11-17T10:50:04.282Z,13.63
2022-11-17T10:53:46.210Z,10.44
2022-11-17T10:56:48.182Z,11.75
2022-11-17T10:59:56.177Z,12.25
2022-11-17T11:02:45.817Z,12.88
2022-11-17T11:06:07.039Z,12.88
2022-11-17T11:09:21.609Z,11.56
2022-11-17T11:12:18.744Z,12.31
2022-11-17T11:15:35.102Z,12.44
2022-11-17T11:18:23.860Z,12.56
2022-11-17T11:21:18.290Z,12.94
2022-11-17T11:24:27.338Z,12.56
2022-11-17T11:27:21.002Z,12.88
2022-11-17T11:30:16.129Z,12.50
2022-11-17T11:33:53.801Z,11.88
2022-11-17T11:37:02.397Z,12.25
2022-11-17T11:40:09.251Z,11.56
2022-11-17T11:43:20.439Z,11.81
2022-11-17T11:46:24.450Z,12.19
2022-11-17T11:49:34.246Z,9.94
2022-11-17T11:52:30.175Z,10.38
2022-11-17T11:55:34.303Z,11.50
2022-11-17T11:58:24.839Z,11.44
2022-11-17T12:01:15.958Z,13.25
2022-11-17T12:04:30.489Z,13.94
2022-11-17T12:07:40.633Z,12.94
2022-11-17T12:10:42.423Z,11.50
2022-11-17T12:13:30.664Z,11.25
2022-11-17T12:16:27.540Z,10.94
2022-11-17T12:20:07.504Z,9.75
2022-11-17T12:23:27.729Z,9.00
2022-11-17T12:26:28.769Z,7.75
2022-11-17T12:29:22.475Z,6.69
2022-11-17T12:32:10.437Z,6.63
2022-11-17T12:35:31.391Z,6.38
2022-11-17T12:38:20.154Z,5.94
2022-11-17T12:41:07.958Z,5.94
2022-11-17T12:44:34.491Z,5.88
2022-11-17T12:48:04.922Z,5.63
2022-11-17T12:51:48.702Z,5.50
2022-11-17T12:55:03.255Z,5.19
2022-11-17T12:58:09.069Z,5.38
2022-11-17T13:01:25.181Z,5.19
2022-11-17T13:04:24.848Z,4.94
2022-11-17T13:07:25.705Z,4.44
2022-11-17T13:10:29.501Z,4.31
2022-11-17T13:13:20.449Z,4.25
2022-11-17T13:16:21.963Z,3.75
2022-11-17T13:19:41.255Z,3.50
2022-11-17T13:22:29.029Z,3.19
2022-11-17T13:25:23.155Z,2.94
2022-11-17T13:28:32.268Z,2.94
2022-11-17T13:31:25.755Z,3.00
2022-11-17T13:34:14.986Z,2.81
2022-11-17T13:37:03.383Z,2.75
2022-11-17T13:40:24.321Z,2.56
2022-11-17T13:43:20.538Z,2.44
2022-11-17T13:46:08.705Z,2.44
2022-11-17T13:48:59.688Z,2.44
2022-11-17T13:51:47.550Z,2.50
2022-11-17T13:54:38.448Z,2.44
2022-11-17T13:57:29.453Z,2.31
2022-11-17T14:00:21.082Z,2.25
2022-11-17T14:03:45.001Z,2.25
2022-11-17T14:06:59.694Z,2.13
2022-11-17T14:09:47.582Z,2.00
2022-11-17T14:12:35.533Z,1.94
2022-11-17T14:15:34.636Z,1.81
2022-11-17T14:18:39.722Z,1.75
2022-11-17T14:21:33.001Z,1.63
2022-11-17T14:24:20.819Z,1.50
2022-11-17T14:27:39.567Z,1.38
2022-11-17T14:30:29.189Z,1.38
2022-11-17T14:33:17.330Z,1.38
2022-11-17T14:36:16.824Z,1.25
2022-11-17T14:39:11.108Z,1.19
2022-11-17T14:42:00.098Z,1.06
2022-11-17T14:44:56.060Z,1.06
2022-11-17T14:47:46.730Z,0.94
2022-11-17T14:50:35.221Z,0.88
2022-11-17T14:53:26.665Z,0.81
2022-11-17T14:56:21.623Z,0.75
2022-11-17T14:59:13.309Z,0.75
2022-11-17T15:02:01.287Z,0.69
2022-11-17T15:04:50.966Z,0.69
2022-11-17T15:07:39.495Z,0.88
2022-11-17T15:10:27.044Z,1.06
2022-11-17T15:13:14.952Z,1.19
2022-11-17T15:16:05.046Z,1.31
2022-11-17T15:18:52.658Z,1.19
2022-11-17T15:21:40.463Z,1.19
2022-11-17T15:24:28.198Z,1.25
2022-11-17T15:27:16.281Z,1.25
2022-11-17T15:30:05.280Z,1.31
2022-11-17T15:32:53.065Z,1.50
2022-11-17T15:35:40.896Z,1.56
2022-11-17T15:38:29.269Z,1.63
2022-11-17T15:41:17.291Z,1.63
2022-11-17T15:44:05.396Z,1.63
2022-11-17T15:46:53.261Z,1.69
2022-11-17T15:49:41.169Z,1.69
2022-11-17T15:52:56.574Z,1.88
2022-11-17T15:55:36.967Z,2.00
2022-11-17T15:58:24.593Z,2.06
2022-11-17T16:01:45.930Z,2.13
2022-11-17T16:04:33.877Z,2.25
2022-11-17T16:07:22.025Z,2.31
2022-11-17T16:10:10.431Z,2.38
2022-11-17T16:12:57.866Z,2.44
2022-11-17T16:15:49.710Z,2.50
2022-11-17T16:18:38.699Z,2.56
2022-11-17T16:21:26.848Z,2.56
2022-11-17T16:24:16.933Z,2.56
2022-11-17T16:27:04.577Z,2.63
2022-11-17T16:29:52.540Z,2.63
2022-11-17T16:32:41.052Z,2.75
2022-11-17T16:35:28.847Z,2.75
2022-11-17T16:38:17.787Z,2.75
2022-11-17T16:41:05.385Z,2.81
2022-11-17T16:43:53.915Z,2.88
2022-11-17T16:46:45.333Z,2.88
2022-11-17T16:49:35.328Z,2.88
2022-11-17T16:52:22.952Z,2.75
2022-11-17T16:55:10.467Z,2.75
2022-11-17T16:57:57.953Z,2.69
2022-11-17T17:00:45.867Z,2.63
2022-11-17T17:03:33.639Z,2.69
2022-11-17T17:06:21.095Z,2.69
2022-11-17T17:09:12.446Z,2.81
2022-11-17T17:12:00.100Z,2.75
2022-11-17T17:14:48.290Z,2.63
2022-11-17T17:17:36.525Z,2.75
2022-11-17T17:20:23.923Z,2.88
2022-11-17T17:23:11.571Z,2.94
2022-11-17T17:26:16.833Z,2.88
2022-11-17T17:29:05.984Z,2.88
2022-11-17T17:31:53.812Z,2.94
2022-11-17T17:34:41.465Z,2.94
2022-11-17T17:37:33.240Z,2.94
2022-11-17T17:40:21.099Z,2.94
2022-11-17T17:43:08.905Z,3.00
2022-11-17T17:46:05.418Z,3.00
2022-11-17T17:48:53.416Z,3.06
2022-11-17T17:51:44.576Z,3.06
2022-11-17T17:54:32.139Z,3.13
2022-11-17T17:57:20.088Z,3.19
2022-11-17T18:00:09.042Z,3.13
2022-11-17T18:02:57.025Z,3.13
2022-11-17T18:05:46.278Z,3.06
2022-11-17T18:08:36.481Z,3.06
2022-11-17T18:11:24.688Z,3.00
2022-11-17T18:14:13.152Z,3.00
2022-11-17T18:17:01.790Z,3.00
2022-11-17T18:19:50.310Z,2.94
2022-11-17T18:22:38.507Z,3.00
2022-11-17T18:25:25.961Z,2.94
2022-11-17T18:28:13.885Z,2.94
2022-11-17T18:31:03.932Z,2.94
2022-11-17T18:33:57.865Z,2.88
2022-11-17T18:36:45.685Z,2.81
2022-11-17T18:39:33.593Z,2.75
2022-11-17T18:42:21.401Z,2.75
2022-11-17T18:45:09.696Z,2.75
2022-11-17T18:47:57.526Z,2.75
2022-11-17T18:51:12.300Z,2.81
2022-11-17T18:53:55.266Z,2.75
2022-11-17T18:56:44.577Z,2.69
2022-11-17T18:59:31.998Z,2.75
2022-11-17T19:02:19.589Z,2.69
2022-11-17T19:05:07.777Z,2.69
2022-11-17T19:07:57.364Z,2.75
2022-11-17T19:10:53.845Z,2.69
2022-11-17T19:13:42.485Z,2.75
2022-11-17T19:16:31.913Z,2.75
2022-11-17T19:19:20.063Z,2.75
2022-11-17T19:22:08.188Z,2.63
2022-11-17T19:24:56.179Z,2.38
2022-11-17T19:27:44.171Z,2.38
2022-11-17T19:30:31.996Z,2.31
2022-11-17T19:33:20.047Z,2.31
2022-11-17T19:36:31.010Z,2.50
2022-11-17T19:39:19.564Z,2.50
2022-11-17T19:42:07.480Z,2.56
2022-11-17T19:44:55.237Z,2.63
2022-11-17T19:47:42.908Z,2.69
2022-11-17T19:50:31.922Z,2.81
2022-11-17T19:53:19.945Z,2.88
2022-11-17T19:56:08.777Z,2.75
2022-11-17T19:58:57.739Z,2.81
2022-11-17T20:01:46.164Z,2.88
2022-11-17T20:04:34.483Z,2.94
2022-11-17T20:07:22.419Z,2.94
2022-11-17T20:10:10.759Z,3.00
2022-11-17T20:12:59.341Z,3.06
2022-11-17T20:15:47.740Z,3.00
2022-11-17T20:18:35.253Z,3.00
2022-11-17T20:21:24.622Z,2.88
2022-11-17T20:24:12.833Z,3.00
2022-11-17T20:27:00.674Z,3.06
2022-11-17T20:29:48.403Z,3.19
2022-11-17T20:32:37.231Z,3.19
2022-11-17T20:35:24.636Z,3.06
2022-11-17T20:38:15.704Z,3.00
2022-11-17T20:41:04.786Z,2.50
2022-11-17T20:43:55.882Z,2.31
2022-11-17T20:46:43.456Z,2.25
2022-11-17T20:49:31.434Z,2.19
2022-11-17T20:52:19.239Z,2.25
2022-11-17T20:55:08.187Z,2.31
2022-11-17T20:57:56.403Z,2.44
2022-11-17T21:00:44.261Z,2.50
2022-11-17T21:03:31.869Z,2.38
2022-11-17T21:06:24.945Z,2.31
2022-11-17T21:09:12.693Z,2.31
2022-11-17T21:12:00.411Z,2.19
2022-11-17T21:14:49.007Z,2.13
2022-11-17T21:17:55.364Z,2.25
2022-11-17T21:20:43.172Z,2.31
2022-11-17T21:23:31.315Z,2.38
2022-11-17T21:26:19.336Z,2.38
2022-11-17T21:29:07.451Z,2.38
2022-11-17T21:31:55.266Z,2.44
2022-11-17T21:34:48.557Z,2.50
2022-11-17T21:37:37.431Z,2.38
2022-11-17T21:40:25.375Z,2.38
2022-11-17T21:43:12.838Z,2.38
2022-11-17T21:46:02.884Z,2.38
2022-11-17T21:48:52.618Z,2.38
2022-11-17T21:51:42.007Z,2.13
2022-11-17T21:54:29.904Z,1.88
2022-11-17T21:57:17.875Z,1.81
2022-11-17T22:00:06.385Z,1.81
2022-11-17T22:02:54.893Z,1.81
2022-11-17T22:05:42.565Z,1.88
2022-11-17T22:08:30.283Z,1.88
2022-11-17T22:11:35.249Z,1.69
2022-11-17T22:14:23.414Z,1.56
2022-11-17T22:17:11.247Z,1.25
2022-11-17T22:19:59.079Z,1.13
2022-11-17T22:22:47.829Z,1.13
2022-11-17T22:25:45.174Z,1.00
2022-11-17T22:28:33.557Z,1.00
2022-11-17T22:31:22.902Z,1.00
2022-11-17T22:34:12.069Z,0.88
2022-11-17T22:37:00.091Z,0.81
2022-11-17T22:39:47.968Z,0.88
2022-11-17T22:42:35.659Z,0.94
2022-11-17T22:45:23.677Z,1.00
2022-11-17T22:48:11.179Z,1.00
2022-11-17T22:51:01.995Z,1.00
2022-11-17T22:53:49.791Z,1.00
2022-11-17T22:56:37.441Z,0.88
2022-11-17T22:59:29.162Z,0.81
2022-11-17T23:02:17.104Z,0.88
2022-11-17T23:05:05.191Z,0.88
2022-11-17T23:07:56.897Z,0.94
2022-11-17T23:10:46.071Z,0.94
2022-11-17T23:13:34.001Z,1.00
2022-11-17T23:16:22.655Z,1.00
2022-11-17T23:19:14.329Z,1.06
2022-11-17T23:22:02.668Z,1.13
2022-11-17T23:24:50.577Z,1.13
2022-11-17T23:27:38.373Z,1.13
2022-11-17T23:30:25.977Z,1.13
2022-11-17T23:33:13.926Z,1.19
2022-11-17T23:36:05.148Z,1.19
2022-11-17T23:38:55.713Z,1.19
2022-11-17T23:41:43.660Z,1.13
2022-11-17T23:44:31.891Z,1.19
2022-11-17T23:47:19.946Z,1.25
2022-11-17T23:50:08.874Z,1.19
2022-11-17T23:52:56.701Z,1.19
2022-11-17T23:55:44.351Z,1.25
2022-11-17T23:58:32.779Z,1.25
